sensor_id;sensor_type;location;lat;lon;timestamp;P1;durP1;ratioP1;P2;durP2;ratioP2
26391;SDS011;14572;43.120;1.178;2022-10-16T00:02:02;10.80;;;5.30;;
26391;SDS011;14572;43.120;1.178;2022-10-16T00:04:30;8.63;;;5.07;;
26391;SDS011;14572;43.120;1.178;2022-10-16T00:06:57;10.75;;;5.22;;
26391;SDS011;14572;43.120;1.178;2022-10-16T00:09:24;5.10;;;4.45;;
26391;SDS011;14572;43.120;1.178;2022-10-16T00:11:51;6.80;;;4.95;;
26391;SDS011;14572;43.120;1.178;2022-10-16T00:14:19;9.70;;;5.10;;
26391;SDS011;14572;43.120;1.178;2022-10-16T00:16:46;6.38;;;4.82;;
26391;SDS011;14572;43.120;1.178;2022-10-16T00:19:14;13.55;;;5.43;;
26391;SDS011;14572;43.120;1.178;2022-10-16T00:21:41;8.07;;;4.70;;
26391;SDS011;14572;43.120;1.178;2022-10-16T00:24:09;10.50;;;5.10;;
26391;SDS011;14572;43.120;1.178;2022-10-16T00:26:37;6.00;;;4.88;;
26391;SDS011;14572;43.120;1.178;2022-10-16T00:29:06;8.90;;;4.68;;
26391;SDS011;14572;43.120;1.178;2022-10-16T00:31:33;8.07;;;5.45;;
26391;SDS011;14572;43.120;1.178;2022-10-16T00:34:00;6.43;;;4.57;;
26391;SDS011;14572;43.120;1.178;2022-10-16T00:36:30;9.18;;;4.20;;
26391;SDS011;14572;43.120;1.178;2022-10-16T00:38:57;9.27;;;4.53;;
26391;SDS011;14572;43.120;1.178;2022-10-16T00:41:26;7.57;;;4.43;;
26391;SDS011;14572;43.120;1.178;2022-10-16T00:43:55;6.10;;;4.45;;
26391;SDS011;14572;43.120;1.178;2022-10-16T00:46:23;6.43;;;4.97;;
26391;SDS011;14572;43.120;1.178;2022-10-16T00:48:54;5.88;;;4.57;;
26391;SDS011;14572;43.120;1.178;2022-10-16T00:51:25;9.25;;;4.80;;
26391;SDS011;14572;43.120;1.178;2022-10-16T00:53:57;8.88;;;4.47;;
26391;SDS011;14572;43.120;1.178;2022-10-16T00:56:25;6.82;;;4.28;;
26391;SDS011;14572;43.120;1.178;2022-10-16T00:58:52;7.63;;;4.40;;
26391;SDS011;14572;43.120;1.178;2022-10-16T01:01:19;7.65;;;4.57;;
26391;SDS011;14572;43.120;1.178;2022-10-16T01:03:46;6.53;;;4.43;;
26391;SDS011;14572;43.120;1.178;2022-10-16T01:06:20;11.00;;;4.90;;
26391;SDS011;14572;43.120;1.178;2022-10-16T01:11:38;7.40;;;4.32;;
26391;SDS011;14572;43.120;1.178;2022-10-16T01:14:10;10.30;;;4.25;;
26391;SDS011;14572;43.120;1.178;2022-10-16T01:16:43;7.00;;;4.43;;
26391;SDS011;14572;43.120;1.178;2022-10-16T01:19:12;6.63;;;4.57;;
26391;SDS011;14572;43.120;1.178;2022-10-16T01:21:43;8.52;;;4.85;;
26391;SDS011;14572;43.120;1.178;2022-10-16T01:24:15;9.35;;;4.97;;
26391;SDS011;14572;43.120;1.178;2022-10-16T01:29:37;5.15;;;4.15;;
26391;SDS011;14572;43.120;1.178;2022-10-16T01:32:09;7.05;;;5.00;;
26391;SDS011;14572;43.120;1.178;2022-10-16T01:34:47;7.90;;;4.97;;
26391;SDS011;14572;43.120;1.178;2022-10-16T01:40:03;6.50;;;4.78;;
26391;SDS011;14572;43.120;1.178;2022-10-16T01:42:36;6.80;;;4.97;;
26391;SDS011;14572;43.120;1.178;2022-10-16T01:45:05;6.53;;;4.63;;
26391;SDS011;14572;43.120;1.178;2022-10-16T01:47:33;6.38;;;4.15;;
26391;SDS011;14572;43.120;1.178;2022-10-16T01:50:02;6.50;;;4.50;;
26391;SDS011;14572;43.120;1.178;2022-10-16T01:52:31;6.18;;;4.32;;
26391;SDS011;14572;43.120;1.178;2022-10-16T01:55:00;4.88;;;4.28;;
26391;SDS011;14572;43.120;1.178;2022-10-16T01:57:29;6.72;;;4.70;;
26391;SDS011;14572;43.120;1.178;2022-10-16T01:59:58;6.72;;;4.43;;
26391;SDS011;14572;43.120;1.178;2022-10-16T02:02:30;7.25;;;4.20;;
26391;SDS011;14572;43.120;1.178;2022-10-16T02:04:58;6.70;;;4.10;;
26391;SDS011;14572;43.120;1.178;2022-10-16T02:07:30;5.80;;;4.35;;
26391;SDS011;14572;43.120;1.178;2022-10-16T02:09:57;7.85;;;4.60;;
26391;SDS011;14572;43.120;1.178;2022-10-16T02:12:26;8.60;;;4.20;;
26391;SDS011;14572;43.120;1.178;2022-10-16T02:14:54;5.90;;;4.15;;
26391;SDS011;14572;43.120;1.178;2022-10-16T02:17:23;6.75;;;4.50;;
26391;SDS011;14572;43.120;1.178;2022-10-16T02:19:52;6.28;;;4.32;;
26391;SDS011;14572;43.120;1.178;2022-10-16T02:22:22;7.25;;;4.80;;
26391;SDS011;14572;43.120;1.178;2022-10-16T02:24:54;5.13;;;4.63;;
26391;SDS011;14572;43.120;1.178;2022-10-16T02:27:24;5.90;;;4.78;;
26391;SDS011;14572;43.120;1.178;2022-10-16T02:29:54;5.10;;;4.60;;
26391;SDS011;14572;43.120;1.178;2022-10-16T02:32:27;8.55;;;4.78;;
26391;SDS011;14572;43.120;1.178;2022-10-16T02:34:57;5.35;;;4.47;;
26391;SDS011;14572;43.120;1.178;2022-10-16T02:37:25;6.63;;;4.38;;
26391;SDS011;14572;43.120;1.178;2022-10-16T02:39:53;6.30;;;4.70;;
26391;SDS011;14572;43.120;1.178;2022-10-16T02:42:27;6.07;;;4.47;;
26391;SDS011;14572;43.120;1.178;2022-10-16T02:44:54;5.25;;;4.60;;
26391;SDS011;14572;43.120;1.178;2022-10-16T02:47:21;6.32;;;4.55;;
26391;SDS011;14572;43.120;1.178;2022-10-16T02:49:50;12.30;;;4.22;;
26391;SDS011;14572;43.120;1.178;2022-10-16T02:52:17;5.82;;;4.40;;
26391;SDS011;14572;43.120;1.178;2022-10-16T02:54:44;7.00;;;4.90;;
26391;SDS011;14572;43.120;1.178;2022-10-16T02:57:11;8.80;;;4.85;;
26391;SDS011;14572;43.120;1.178;2022-10-16T02:59:38;8.43;;;5.10;;
26391;SDS011;14572;43.120;1.178;2022-10-16T03:02:06;6.43;;;5.03;;
26391;SDS011;14572;43.120;1.178;2022-10-16T03:04:33;6.40;;;4.40;;
26391;SDS011;14572;43.120;1.178;2022-10-16T03:07:01;5.43;;;3.97;;
26391;SDS011;14572;43.120;1.178;2022-10-16T03:09:29;6.07;;;4.25;;
26391;SDS011;14572;43.120;1.178;2022-10-16T03:11:56;6.38;;;4.38;;
26391;SDS011;14572;43.120;1.178;2022-10-16T03:14:23;5.55;;;4.05;;
26391;SDS011;14572;43.120;1.178;2022-10-16T03:16:50;4.38;;;3.63;;
26391;SDS011;14572;43.120;1.178;2022-10-16T03:19:18;5.10;;;4.05;;
26391;SDS011;14572;43.120;1.178;2022-10-16T03:21:45;5.88;;;4.18;;
26391;SDS011;14572;43.120;1.178;2022-10-16T03:24:14;5.63;;;3.80;;
26391;SDS011;14572;43.120;1.178;2022-10-16T03:26:41;5.28;;;3.53;;
26391;SDS011;14572;43.120;1.178;2022-10-16T03:29:08;5.72;;;4.07;;
26391;SDS011;14572;43.120;1.178;2022-10-16T03:31:36;8.52;;;4.00;;
26391;SDS011;14572;43.120;1.178;2022-10-16T03:34:03;5.00;;;3.90;;
26391;SDS011;14572;43.120;1.178;2022-10-16T03:36:30;4.28;;;3.58;;
26391;SDS011;14572;43.120;1.178;2022-10-16T03:38:57;4.43;;;3.70;;
26391;SDS011;14572;43.120;1.178;2022-10-16T03:41:26;6.03;;;4.13;;
26391;SDS011;14572;43.120;1.178;2022-10-16T03:43:53;4.85;;;4.15;;
26391;SDS011;14572;43.120;1.178;2022-10-16T03:46:20;4.45;;;4.00;;
26391;SDS011;14572;43.120;1.178;2022-10-16T03:48:47;7.28;;;3.47;;
26391;SDS011;14572;43.120;1.178;2022-10-16T03:51:15;4.88;;;3.72;;
26391;SDS011;14572;43.120;1.178;2022-10-16T03:53:42;5.28;;;3.53;;
26391;SDS011;14572;43.120;1.178;2022-10-16T03:56:09;4.18;;;3.42;;
26391;SDS011;14572;43.120;1.178;2022-10-16T03:58:38;6.53;;;3.70;;
26391;SDS011;14572;43.120;1.178;2022-10-16T04:01:05;4.88;;;3.60;;
26391;SDS011;14572;43.120;1.178;2022-10-16T04:03:32;8.13;;;4.25;;
26391;SDS011;14572;43.120;1.178;2022-10-16T04:05:59;5.53;;;3.83;;
26391;SDS011;14572;43.120;1.178;2022-10-16T04:08:26;7.13;;;4.72;;
26391;SDS011;14572;43.120;1.178;2022-10-16T04:10:54;7.53;;;4.03;;
26391;SDS011;14572;43.120;1.178;2022-10-16T04:13:21;5.20;;;3.78;;
26391;SDS011;14572;43.120;1.178;2022-10-16T04:15:50;5.47;;;4.18;;
26391;SDS011;14572;43.120;1.178;2022-10-16T04:18:17;8.68;;;3.90;;
26391;SDS011;14572;43.120;1.178;2022-10-16T04:20:44;4.90;;;4.00;;
26391;SDS011;14572;43.120;1.178;2022-10-16T04:23:11;5.35;;;4.07;;
26391;SDS011;14572;43.120;1.178;2022-10-16T04:25:38;7.72;;;4.15;;
26391;SDS011;14572;43.120;1.178;2022-10-16T04:28:06;4.07;;;3.40;;
26391;SDS011;14572;43.120;1.178;2022-10-16T04:30:33;4.43;;;3.85;;
26391;SDS011;14572;43.120;1.178;2022-10-16T04:33:02;3.95;;;3.45;;
26391;SDS011;14572;43.120;1.178;2022-10-16T04:35:29;5.68;;;3.80;;
26391;SDS011;14572;43.120;1.178;2022-10-16T04:37:56;5.47;;;4.10;;
26391;SDS011;14572;43.120;1.178;2022-10-16T04:40:24;4.07;;;3.60;;
26391;SDS011;14572;43.120;1.178;2022-10-16T04:42:51;9.63;;;3.92;;
26391;SDS011;14572;43.120;1.178;2022-10-16T04:45:18;7.85;;;3.88;;
26391;SDS011;14572;43.120;1.178;2022-10-16T04:47:46;6.75;;;3.75;;
26391;SDS011;14572;43.120;1.178;2022-10-16T04:50:14;4.47;;;3.47;;
26391;SDS011;14572;43.120;1.178;2022-10-16T04:55:32;12.05;;;4.07;;
26391;SDS011;14572;43.120;1.178;2022-10-16T04:57:59;7.72;;;4.00;;
26391;SDS011;14572;43.120;1.178;2022-10-16T05:00:26;4.57;;;3.03;;
26391;SDS011;14572;43.120;1.178;2022-10-16T05:02:54;5.75;;;3.65;;
26391;SDS011;14572;43.120;1.178;2022-10-16T05:05:23;5.65;;;3.90;;
26391;SDS011;14572;43.120;1.178;2022-10-16T05:07:50;6.07;;;3.22;;
26391;SDS011;14572;43.120;1.178;2022-10-16T05:10:18;3.72;;;3.20;;
26391;SDS011;14572;43.120;1.178;2022-10-16T05:12:45;5.10;;;3.22;;
26391;SDS011;14572;43.120;1.178;2022-10-16T05:15:13;4.00;;;3.60;;
26391;SDS011;14572;43.120;1.178;2022-10-16T05:17:40;5.00;;;3.00;;
26391;SDS011;14572;43.120;1.178;2022-10-16T05:20:07;4.50;;;2.70;;
26391;SDS011;14572;43.120;1.178;2022-10-16T05:22:36;4.13;;;3.08;;
26391;SDS011;14572;43.120;1.178;2022-10-16T05:25:03;5.55;;;3.30;;
26391;SDS011;14572;43.120;1.178;2022-10-16T05:27:31;5.95;;;3.45;;
26391;SDS011;14572;43.120;1.178;2022-10-16T05:29:58;5.88;;;3.60;;
26391;SDS011;14572;43.120;1.178;2022-10-16T05:32:26;5.65;;;3.60;;
26391;SDS011;14572;43.120;1.178;2022-10-16T05:34:53;4.72;;;3.50;;
26391;SDS011;14572;43.120;1.178;2022-10-16T05:37:20;4.88;;;3.88;;
26391;SDS011;14572;43.120;1.178;2022-10-16T05:39:49;5.50;;;3.35;;
26391;SDS011;14572;43.120;1.178;2022-10-16T05:42:16;5.18;;;3.50;;
26391;SDS011;14572;43.120;1.178;2022-10-16T05:44:43;7.35;;;3.83;;
26391;SDS011;14572;43.120;1.178;2022-10-16T05:47:12;5.60;;;3.72;;
26391;SDS011;14572;43.120;1.178;2022-10-16T05:49:40;4.00;;;3.30;;
26391;SDS011;14572;43.120;1.178;2022-10-16T05:52:07;5.75;;;3.42;;
26391;SDS011;14572;43.120;1.178;2022-10-16T05:54:34;5.63;;;3.55;;
26391;SDS011;14572;43.120;1.178;2022-10-16T05:57:03;6.32;;;3.38;;
26391;SDS011;14572;43.120;1.178;2022-10-16T05:59:31;4.78;;;3.28;;
26391;SDS011;14572;43.120;1.178;2022-10-16T06:01:58;4.10;;;3.65;;
26391;SDS011;14572;43.120;1.178;2022-10-16T06:04:27;5.22;;;3.35;;
26391;SDS011;14572;43.120;1.178;2022-10-16T06:07:01;4.85;;;3.13;;
26391;SDS011;14572;43.120;1.178;2022-10-16T06:09:28;4.68;;;3.33;;
26391;SDS011;14572;43.120;1.178;2022-10-16T06:11:56;5.82;;;3.30;;
26391;SDS011;14572;43.120;1.178;2022-10-16T06:14:25;7.18;;;3.83;;
26391;SDS011;14572;43.120;1.178;2022-10-16T06:16:52;4.18;;;2.92;;
26391;SDS011;14572;43.120;1.178;2022-10-16T06:19:19;6.20;;;3.40;;
26391;SDS011;14572;43.120;1.178;2022-10-16T06:21:48;5.47;;;3.13;;
26391;SDS011;14572;43.120;1.178;2022-10-16T06:24:15;3.60;;;2.75;;
26391;SDS011;14572;43.120;1.178;2022-10-16T06:26:42;4.15;;;3.08;;
26391;SDS011;14572;43.120;1.178;2022-10-16T06:29:09;4.28;;;2.88;;
26391;SDS011;14572;43.120;1.178;2022-10-16T06:31:39;3.85;;;3.05;;
26391;SDS011;14572;43.120;1.178;2022-10-16T06:34:08;3.80;;;3.10;;
26391;SDS011;14572;43.120;1.178;2022-10-16T06:36:36;4.40;;;3.60;;
26391;SDS011;14572;43.120;1.178;2022-10-16T06:39:04;4.10;;;2.97;;
26391;SDS011;14572;43.120;1.178;2022-10-16T06:41:32;5.18;;;3.75;;
26391;SDS011;14572;43.120;1.178;2022-10-16T06:44:00;5.47;;;3.35;;
26391;SDS011;14572;43.120;1.178;2022-10-16T06:46:27;3.50;;;2.88;;
26391;SDS011;14572;43.120;1.178;2022-10-16T06:48:56;3.72;;;3.05;;
26391;SDS011;14572;43.120;1.178;2022-10-16T06:51:23;7.60;;;2.85;;
26391;SDS011;14572;43.120;1.178;2022-10-16T06:53:52;4.72;;;2.78;;
26391;SDS011;14572;43.120;1.178;2022-10-16T06:56:22;5.00;;;2.92;;
26391;SDS011;14572;43.120;1.178;2022-10-16T06:58:51;2.55;;;2.33;;
26391;SDS011;14572;43.120;1.178;2022-10-16T07:01:20;4.32;;;3.00;;
26391;SDS011;14572;43.120;1.178;2022-10-16T07:03:49;5.10;;;3.13;;
26391;SDS011;14572;43.120;1.178;2022-10-16T07:06:19;4.63;;;3.20;;
26391;SDS011;14572;43.120;1.178;2022-10-16T07:08:47;4.68;;;2.97;;
26391;SDS011;14572;43.120;1.178;2022-10-16T07:11:16;4.25;;;3.13;;
26391;SDS011;14572;43.120;1.178;2022-10-16T07:13:44;3.83;;;3.42;;
26391;SDS011;14572;43.120;1.178;2022-10-16T07:16:12;5.95;;;3.60;;
26391;SDS011;14572;43.120;1.178;2022-10-16T07:18:40;6.50;;;2.92;;
26391;SDS011;14572;43.120;1.178;2022-10-16T07:21:10;3.95;;;2.80;;
26391;SDS011;14572;43.120;1.178;2022-10-16T07:23:40;5.28;;;3.40;;
26391;SDS011;14572;43.120;1.178;2022-10-16T07:26:08;4.35;;;3.15;;
26391;SDS011;14572;43.120;1.178;2022-10-16T07:28:36;4.05;;;3.65;;
26391;SDS011;14572;43.120;1.178;2022-10-16T07:31:05;6.03;;;3.45;;
26391;SDS011;14572;43.120;1.178;2022-10-16T07:33:35;3.47;;;3.17;;
26391;SDS011;14572;43.120;1.178;2022-10-16T07:36:03;4.78;;;2.80;;
26391;SDS011;14572;43.120;1.178;2022-10-16T07:38:31;4.47;;;2.40;;
26391;SDS011;14572;43.120;1.178;2022-10-16T07:41:00;3.78;;;3.03;;
26391;SDS011;14572;43.120;1.178;2022-10-16T07:43:29;7.60;;;3.05;;
26391;SDS011;14572;43.120;1.178;2022-10-16T07:45:57;3.33;;;2.72;;
26391;SDS011;14572;43.120;1.178;2022-10-16T07:48:26;9.30;;;2.80;;
26391;SDS011;14572;43.120;1.178;2022-10-16T07:50:56;3.92;;;3.53;;
26391;SDS011;14572;43.120;1.178;2022-10-16T07:53:26;4.32;;;3.08;;
26391;SDS011;14572;43.120;1.178;2022-10-16T07:56:04;3.47;;;2.70;;
26391;SDS011;14572;43.120;1.178;2022-10-16T07:58:33;3.65;;;2.80;;
26391;SDS011;14572;43.120;1.178;2022-10-16T08:01:03;4.03;;;2.80;;
26391;SDS011;14572;43.120;1.178;2022-10-16T08:03:31;3.15;;;2.70;;
26391;SDS011;14572;43.120;1.178;2022-10-16T08:05:58;3.63;;;2.50;;
26391;SDS011;14572;43.120;1.178;2022-10-16T08:08:26;6.93;;;2.45;;
26391;SDS011;14572;43.120;1.178;2022-10-16T08:10:55;3.22;;;2.53;;
26391;SDS011;14572;43.120;1.178;2022-10-16T08:13:24;2.95;;;2.30;;
26391;SDS011;14572;43.120;1.178;2022-10-16T08:15:53;6.45;;;2.70;;
26391;SDS011;14572;43.120;1.178;2022-10-16T08:18:21;3.22;;;2.20;;
26391;SDS011;14572;43.120;1.178;2022-10-16T08:20:54;3.03;;;2.40;;
26391;SDS011;14572;43.120;1.178;2022-10-16T08:23:22;4.22;;;2.90;;
26391;SDS011;14572;43.120;1.178;2022-10-16T08:25:51;3.10;;;2.60;;
26391;SDS011;14572;43.120;1.178;2022-10-16T08:28:18;4.15;;;2.35;;
26391;SDS011;14572;43.120;1.178;2022-10-16T08:30:47;4.28;;;2.42;;
26391;SDS011;14572;43.120;1.178;2022-10-16T08:33:14;4.68;;;2.45;;
26391;SDS011;14572;43.120;1.178;2022-10-16T08:35:41;5.75;;;2.58;;
26391;SDS011;14572;43.120;1.178;2022-10-16T08:38:08;4.78;;;2.58;;
26391;SDS011;14572;43.120;1.178;2022-10-16T08:40:36;3.08;;;2.42;;
26391;SDS011;14572;43.120;1.178;2022-10-16T08:43:07;4.10;;;2.60;;
26391;SDS011;14572;43.120;1.178;2022-10-16T08:48:33;3.22;;;2.45;;
26391;SDS011;14572;43.120;1.178;2022-10-16T08:51:03;2.40;;;1.98;;
26391;SDS011;14572;43.120;1.178;2022-10-16T08:53:36;3.15;;;2.28;;
26391;SDS011;14572;43.120;1.178;2022-10-16T08:56:06;2.78;;;1.85;;
26391;SDS011;14572;43.120;1.178;2022-10-16T08:58:33;3.00;;;2.30;;
26391;SDS011;14572;43.120;1.178;2022-10-16T09:01:00;3.50;;;2.60;;
26391;SDS011;14572;43.120;1.178;2022-10-16T09:03:41;3.72;;;2.60;;
26391;SDS011;14572;43.120;1.178;2022-10-16T09:06:25;3.95;;;2.30;;
26391;SDS011;14572;43.120;1.178;2022-10-16T09:09:04;4.10;;;2.42;;
26391;SDS011;14572;43.120;1.178;2022-10-16T09:11:43;8.10;;;2.63;;
26391;SDS011;14572;43.120;1.178;2022-10-16T09:14:18;5.03;;;2.28;;
26391;SDS011;14572;43.120;1.178;2022-10-16T09:17:03;3.72;;;2.40;;
26391;SDS011;14572;43.120;1.178;2022-10-16T09:19:41;4.78;;;2.22;;
26391;SDS011;14572;43.120;1.178;2022-10-16T09:22:12;4.93;;;2.63;;
26391;SDS011;14572;43.120;1.178;2022-10-16T09:24:42;3.50;;;2.90;;
26391;SDS011;14572;43.120;1.178;2022-10-16T09:27:09;4.00;;;2.72;;
26391;SDS011;14572;43.120;1.178;2022-10-16T09:29:36;3.65;;;3.00;;
26391;SDS011;14572;43.120;1.178;2022-10-16T09:32:08;4.47;;;2.50;;
26391;SDS011;14572;43.120;1.178;2022-10-16T09:34:41;4.68;;;3.13;;
26391;SDS011;14572;43.120;1.178;2022-10-16T09:37:11;4.53;;;2.90;;
26391;SDS011;14572;43.120;1.178;2022-10-16T09:39:46;3.60;;;2.70;;
26391;SDS011;14572;43.120;1.178;2022-10-16T09:42:15;4.82;;;2.97;;
26391;SDS011;14572;43.120;1.178;2022-10-16T09:44:47;4.28;;;3.30;;
26391;SDS011;14572;43.120;1.178;2022-10-16T09:47:15;5.22;;;3.05;;
26391;SDS011;14572;43.120;1.178;2022-10-16T09:49:53;5.05;;;2.80;;
26391;SDS011;14572;43.120;1.178;2022-10-16T09:52:22;3.65;;;2.78;;
26391;SDS011;14572;43.120;1.178;2022-10-16T09:54:50;7.55;;;3.70;;
26391;SDS011;14572;43.120;1.178;2022-10-16T09:57:18;3.85;;;3.03;;
26391;SDS011;14572;43.120;1.178;2022-10-16T09:59:46;7.43;;;2.90;;
26391;SDS011;14572;43.120;1.178;2022-10-16T10:02:14;4.55;;;3.53;;
26391;SDS011;14572;43.120;1.178;2022-10-16T10:04:44;5.18;;;3.53;;
26391;SDS011;14572;43.120;1.178;2022-10-16T10:07:20;4.78;;;4.00;;
26391;SDS011;14572;43.120;1.178;2022-10-16T10:09:50;5.10;;;4.30;;
26391;SDS011;14572;43.120;1.178;2022-10-16T10:12:19;6.50;;;3.83;;
26391;SDS011;14572;43.120;1.178;2022-10-16T10:14:47;6.78;;;4.00;;
26391;SDS011;14572;43.120;1.178;2022-10-16T10:17:16;7.10;;;4.10;;
26391;SDS011;14572;43.120;1.178;2022-10-16T10:19:46;4.40;;;3.78;;
26391;SDS011;14572;43.120;1.178;2022-10-16T10:22:27;4.50;;;4.10;;
26391;SDS011;14572;43.120;1.178;2022-10-16T10:24:57;5.05;;;4.22;;
26391;SDS011;14572;43.120;1.178;2022-10-16T10:27:27;4.90;;;4.03;;
26391;SDS011;14572;43.120;1.178;2022-10-16T10:30:01;5.43;;;3.30;;
26391;SDS011;14572;43.120;1.178;2022-10-16T10:32:31;4.10;;;3.70;;
26391;SDS011;14572;43.120;1.178;2022-10-16T10:35:12;4.43;;;3.60;;
26391;SDS011;14572;43.120;1.178;2022-10-16T10:37:48;4.53;;;3.08;;
26391;SDS011;14572;43.120;1.178;2022-10-16T10:40:23;5.82;;;3.92;;
26391;SDS011;14572;43.120;1.178;2022-10-16T10:42:57;4.20;;;3.80;;
26391;SDS011;14572;43.120;1.178;2022-10-16T10:45:27;6.60;;;4.05;;
26391;SDS011;14572;43.120;1.178;2022-10-16T10:48:05;5.38;;;4.00;;
26391;SDS011;14572;43.120;1.178;2022-10-16T10:50:45;4.47;;;4.07;;
26391;SDS011;14572;43.120;1.178;2022-10-16T10:53:25;4.90;;;4.32;;
26391;SDS011;14572;43.120;1.178;2022-10-16T10:56:03;4.32;;;3.58;;
26391;SDS011;14572;43.120;1.178;2022-10-16T10:58:38;4.90;;;3.90;;
26391;SDS011;14572;43.120;1.178;2022-10-16T11:01:25;5.88;;;4.10;;
26391;SDS011;14572;43.120;1.178;2022-10-16T11:04:09;4.32;;;3.92;;
26391;SDS011;14572;43.120;1.178;2022-10-16T11:06:46;4.40;;;4.00;;
26391;SDS011;14572;43.120;1.178;2022-10-16T11:09:17;7.38;;;4.03;;
26391;SDS011;14572;43.120;1.178;2022-10-16T11:11:47;6.65;;;4.53;;
26391;SDS011;14572;43.120;1.178;2022-10-16T11:14:19;7.00;;;4.20;;
26391;SDS011;14572;43.120;1.178;2022-10-16T11:16:48;4.68;;;4.20;;
26391;SDS011;14572;43.120;1.178;2022-10-16T11:19:22;4.40;;;4.00;;
26391;SDS011;14572;43.120;1.178;2022-10-16T11:21:56;10.27;;;4.07;;
26391;SDS011;14572;43.120;1.178;2022-10-16T11:24:31;6.40;;;4.28;;
26391;SDS011;14572;43.120;1.178;2022-10-16T11:27:04;4.40;;;4.00;;
26391;SDS011;14572;43.120;1.178;2022-10-16T11:29:35;6.28;;;3.95;;
26391;SDS011;14572;43.120;1.178;2022-10-16T11:32:06;3.90;;;3.60;;
26391;SDS011;14572;43.120;1.178;2022-10-16T11:34:40;4.60;;;4.20;;
26391;SDS011;14572;43.120;1.178;2022-10-16T11:37:11;6.10;;;4.43;;
26391;SDS011;14572;43.120;1.178;2022-10-16T11:39:42;6.50;;;4.07;;
26391;SDS011;14572;43.120;1.178;2022-10-16T11:42:13;5.63;;;4.07;;
26391;SDS011;14572;43.120;1.178;2022-10-16T11:44:48;4.88;;;4.35;;
26391;SDS011;14572;43.120;1.178;2022-10-16T11:47:23;4.30;;;3.75;;
26391;SDS011;14572;43.120;1.178;2022-10-16T11:49:55;5.03;;;4.18;;
26391;SDS011;14572;43.120;1.178;2022-10-16T11:52:25;7.13;;;3.83;;
26391;SDS011;14572;43.120;1.178;2022-10-16T11:54:59;4.97;;;3.10;;
26391;SDS011;14572;43.120;1.178;2022-10-16T11:57:31;3.95;;;3.25;;
26391;SDS011;14572;43.120;1.178;2022-10-16T12:00:01;3.90;;;3.20;;
26391;SDS011;14572;43.120;1.178;2022-10-16T12:02:40;3.92;;;3.40;;
26391;SDS011;14572;43.120;1.178;2022-10-16T12:05:15;5.35;;;3.60;;
26391;SDS011;14572;43.120;1.178;2022-10-16T12:07:48;5.05;;;3.28;;
26391;SDS011;14572;43.120;1.178;2022-10-16T12:10:22;12.32;;;3.50;;
26391;SDS011;14572;43.120;1.178;2022-10-16T12:12:50;5.88;;;3.03;;
26391;SDS011;14572;43.120;1.178;2022-10-16T12:15:19;8.13;;;3.60;;
26391;SDS011;14572;43.120;1.178;2022-10-16T12:17:48;6.10;;;3.15;;
26391;SDS011;14572;43.120;1.178;2022-10-16T12:20:23;6.65;;;3.40;;
26391;SDS011;14572;43.120;1.178;2022-10-16T12:22:53;7.03;;;3.50;;
26391;SDS011;14572;43.120;1.178;2022-10-16T12:25:24;4.40;;;3.33;;
26391;SDS011;14572;43.120;1.178;2022-10-16T12:27:54;4.97;;;2.90;;
26391;SDS011;14572;43.120;1.178;2022-10-16T12:30:23;4.60;;;3.35;;
26391;SDS011;14572;43.120;1.178;2022-10-16T12:36:14;5.32;;;3.10;;
26391;SDS011;14572;43.120;1.178;2022-10-16T12:38:45;5.18;;;3.63;;
26391;SDS011;14572;43.120;1.178;2022-10-16T12:41:23;4.13;;;3.17;;
26391;SDS011;14572;43.120;1.178;2022-10-16T12:43:52;6.25;;;2.80;;
26391;SDS011;14572;43.120;1.178;2022-10-16T12:49:06;4.90;;;3.13;;
26391;SDS011;14572;43.120;1.178;2022-10-16T12:51:46;11.43;;;3.45;;
26391;SDS011;14572;43.120;1.178;2022-10-16T12:54:14;4.55;;;3.17;;
26391;SDS011;14572;43.120;1.178;2022-10-16T12:56:47;6.13;;;3.67;;
26391;SDS011;14572;43.120;1.178;2022-10-16T12:59:21;6.28;;;3.33;;
26391;SDS011;14572;43.120;1.178;2022-10-16T13:02:02;4.25;;;3.00;;
26391;SDS011;14572;43.120;1.178;2022-10-16T13:04:53;4.40;;;3.35;;
26391;SDS011;14572;43.120;1.178;2022-10-16T13:07:43;5.95;;;3.28;;
26391;SDS011;14572;43.120;1.178;2022-10-16T13:10:20;7.93;;;3.17;;
26391;SDS011;14572;43.120;1.178;2022-10-16T13:13:00;5.75;;;3.60;;
26391;SDS011;14572;43.120;1.178;2022-10-16T13:15:41;10.30;;;3.20;;
26391;SDS011;14572;43.120;1.178;2022-10-16T13:18:19;4.32;;;3.15;;
26391;SDS011;14572;43.120;1.178;2022-10-16T13:20:55;13.77;;;3.80;;
26391;SDS011;14572;43.120;1.178;2022-10-16T13:23:30;6.10;;;2.92;;
26391;SDS011;14572;43.120;1.178;2022-10-16T13:26:07;16.05;;;3.50;;
26391;SDS011;14572;43.120;1.178;2022-10-16T13:28:41;6.93;;;3.28;;
26391;SDS011;14572;43.120;1.178;2022-10-16T13:31:10;5.07;;;3.08;;
26391;SDS011;14572;43.120;1.178;2022-10-16T13:33:41;6.05;;;3.95;;
26391;SDS011;14572;43.120;1.178;2022-10-16T13:36:18;6.35;;;3.35;;
26391;SDS011;14572;43.120;1.178;2022-10-16T13:38:46;4.95;;;3.42;;
26391;SDS011;14572;43.120;1.178;2022-10-16T13:41:14;4.50;;;3.35;;
26391;SDS011;14572;43.120;1.178;2022-10-16T13:43:44;6.97;;;3.63;;
26391;SDS011;14572;43.120;1.178;2022-10-16T13:46:13;5.35;;;3.08;;
26391;SDS011;14572;43.120;1.178;2022-10-16T13:48:41;11.70;;;3.80;;
26391;SDS011;14572;43.120;1.178;2022-10-16T13:51:12;4.07;;;3.45;;
26391;SDS011;14572;43.120;1.178;2022-10-16T13:53:42;7.45;;;4.28;;
26391;SDS011;14572;43.120;1.178;2022-10-16T13:56:10;6.13;;;3.88;;
26391;SDS011;14572;43.120;1.178;2022-10-16T13:58:39;5.25;;;3.55;;
26391;SDS011;14572;43.120;1.178;2022-10-16T14:01:15;6.53;;;3.50;;
26391;SDS011;14572;43.120;1.178;2022-10-16T14:03:43;4.97;;;3.10;;
26391;SDS011;14572;43.120;1.178;2022-10-16T14:06:12;5.65;;;3.40;;
26391;SDS011;14572;43.120;1.178;2022-10-16T14:08:42;4.75;;;3.22;;
26391;SDS011;14572;43.120;1.178;2022-10-16T14:11:09;6.72;;;3.35;;
26391;SDS011;14572;43.120;1.178;2022-10-16T14:16:59;4.45;;;3.15;;
26391;SDS011;14572;43.120;1.178;2022-10-16T14:19:27;9.18;;;3.20;;
26391;SDS011;14572;43.120;1.178;2022-10-16T14:21:56;4.50;;;3.33;;
26391;SDS011;14572;43.120;1.178;2022-10-16T14:24:25;6.03;;;3.20;;
26391;SDS011;14572;43.120;1.178;2022-10-16T14:26:53;6.15;;;3.58;;
26391;SDS011;14572;43.120;1.178;2022-10-16T14:29:21;4.35;;;3.67;;
26391;SDS011;14572;43.120;1.178;2022-10-16T14:31:55;10.85;;;3.35;;
26391;SDS011;14572;43.120;1.178;2022-10-16T14:34:27;11.90;;;3.53;;
26391;SDS011;14572;43.120;1.178;2022-10-16T14:36:56;7.32;;;3.60;;
26391;SDS011;14572;43.120;1.178;2022-10-16T14:39:26;6.63;;;3.60;;
26391;SDS011;14572;43.120;1.178;2022-10-16T14:41:54;7.70;;;4.00;;
26391;SDS011;14572;43.120;1.178;2022-10-16T14:44:23;8.50;;;3.90;;
26391;SDS011;14572;43.120;1.178;2022-10-16T14:46:55;10.73;;;3.72;;
26391;SDS011;14572;43.120;1.178;2022-10-16T14:49:22;6.57;;;3.70;;
26391;SDS011;14572;43.120;1.178;2022-10-16T14:51:51;8.20;;;3.80;;
26391;SDS011;14572;43.120;1.178;2022-10-16T14:54:18;8.68;;;3.72;;
26391;SDS011;14572;43.120;1.178;2022-10-16T14:56:47;4.53;;;3.67;;
26391;SDS011;14572;43.120;1.178;2022-10-16T14:59:16;6.00;;;3.75;;
26391;SDS011;14572;43.120;1.178;2022-10-16T15:01:45;5.78;;;3.80;;
26391;SDS011;14572;43.120;1.178;2022-10-16T15:04:13;5.28;;;3.72;;
26391;SDS011;14572;43.120;1.178;2022-10-16T15:06:41;9.80;;;3.90;;
26391;SDS011;14572;43.120;1.178;2022-10-16T15:09:10;12.15;;;3.97;;
26391;SDS011;14572;43.120;1.178;2022-10-16T15:11:37;5.35;;;3.80;;
26391;SDS011;14572;43.120;1.178;2022-10-16T15:14:17;14.30;;;4.22;;
26391;SDS011;14572;43.120;1.178;2022-10-16T15:16:44;9.07;;;5.20;;
26391;SDS011;14572;43.120;1.178;2022-10-16T15:19:11;9.57;;;3.80;;
26391;SDS011;14572;43.120;1.178;2022-10-16T15:21:38;7.75;;;3.90;;
26391;SDS011;14572;43.120;1.178;2022-10-16T15:24:08;6.30;;;3.63;;
26391;SDS011;14572;43.120;1.178;2022-10-16T15:26:39;5.93;;;3.67;;
26391;SDS011;14572;43.120;1.178;2022-10-16T15:29:06;7.38;;;3.78;;